Time;durP1;ratioP1;P1;durP2;ratioP2;P2;SDS_P1;SDS_P2;PMS_P1;PMS_P2;Temp;Humidity;BMP_temperature;BMP_pressure;BME280_temperature;BME280_humidity;BME280_pressure;Samples;Min_cycle;Max_cycle;Signal;HPM_P1;HPM_P2
2023/08/09 00:00:57;;;;;;;1.73;1.00;;;18.90;99.90;;;;;;4974433;28;20037;-76
2023/08/09 00:03:23;;;;;;;2.25;1.10;;;18.90;99.90;;;;;;4973940;28;20461;-76
2023/08/09 00:05:49;;;;;;;2.97;1.10;;;18.90;99.90;;;;;;4989701;28;20446;-75
2023/08/09 00:08:14;;;;;;;4.03;1.00;;;18.90;99.90;;;;;;4976193;28;20026;-76
2023/08/09 00:10:40;;;;;;;1.75;0.93;;;18.90;99.90;;;;;;4992460;28;20065;-76
2023/08/09 00:13:07;;;;;;;2.08;1.20;;;18.80;99.90;;;;;;4992458;28;20047;-76
2023/08/09 00:15:33;;;;;;;2.88;1.05;;;18.90;99.90;;;;;;4993199;28;20030;-76
2023/08/09 00:17:58;;;;;;;3.30;1.00;;;18.90;99.90;;;;;;4993471;28;20031;-75
2023/08/09 00:20:25;;;;;;;3.17;1.50;;;18.80;99.90;;;;;;4992029;28;20464;-76
2023/08/09 00:22:50;;;;;;;2.00;1.20;;;18.80;99.90;;;;;;4993603;28;20030;-76
2023/08/09 00:25:17;;;;;;;2.85;1.23;;;18.90;99.90;;;;;;4993631;28;20034;-77
2023/08/09 00:27:43;;;;;;;2.50;1.30;;;18.90;99.90;;;;;;4994309;28;20026;-76
2023/08/09 00:30:13;;;;;;;2.30;1.20;;;18.80;99.90;;;;;;4992336;28;20057;-76
2023/08/09 00:32:40;;;;;;;2.75;1.00;;;18.80;99.90;;;;;;4993720;28;20118;-76
2023/08/09 00:35:06;;;;;;;2.15;1.00;;;18.80;99.90;;;;;;4992426;28;20085;-75
2023/08/09 00:37:32;;;;;;;2.28;1.33;;;18.70;99.90;;;;;;4993121;28;20514;-75
2023/08/09 00:39:59;;;;;;;4.40;1.25;;;18.70;99.90;;;;;;4992459;28;20072;-76
2023/08/09 00:42:24;;;;;;;2.00;1.10;;;18.70;99.90;;;;;;4977249;28;20080;-78
2023/08/09 00:44:50;;;;;;;3.25;1.20;;;18.70;99.90;;;;;;4992733;28;20500;-76
2023/08/09 00:47:16;;;;;;;1.98;1.02;;;18.70;99.90;;;;;;4977951;28;20038;-76
2023/08/09 00:49:43;;;;;;;6.45;1.10;;;18.70;99.90;;;;;;4976397;28;20027;-76
2023/08/09 00:52:09;;;;;;;3.80;1.20;;;18.60;99.90;;;;;;4992959;28;20031;-76
2023/08/09 00:54:38;;;;;;;3.30;1.25;;;18.60;99.90;;;;;;4992119;28;20093;-76
2023/08/09 00:57:05;;;;;;;1.52;0.93;;;18.60;99.90;;;;;;4992801;28;20033;-76
2023/08/09 00:59:31;;;;;;;2.90;1.10;;;18.60;99.90;;;;;;4991902;28;20113;-76
2023/08/09 01:01:56;;;;;;;1.45;1.00;;;18.60;99.90;;;;;;4977691;28;20474;-76
2023/08/09 01:04:22;;;;;;;1.23;0.85;;;18.50;99.90;;;;;;4976660;28;20026;-76
2023/08/09 01:07:16;;;;;;;1.77;1.15;;;18.60;99.90;;;;;;4992353;28;20456;-76
2023/08/09 01:09:56;;;;;;;3.00;1.23;;;18.60;99.90;;;;;;4968657;28;20038;-76
2023/08/09 01:12:29;;;;;;;2.70;1.08;;;18.50;99.90;;;;;;4975495;28;20031;-77
2023/08/09 01:14:59;;;;;;;1.50;1.00;;;18.50;99.90;;;;;;4992372;28;20030;-76
2023/08/09 01:17:29;;;;;;;1.50;0.90;;;18.50;99.90;;;;;;4975310;28;20041;-76
2023/08/09 01:19:56;;;;;;;2.42;0.90;;;18.50;99.90;;;;;;4976261;28;20468;-76
2023/08/09 01:22:23;;;;;;;4.15;1.38;;;18.50;99.90;;;;;;4976569;28;20069;-76
2023/08/09 01:24:49;;;;;;;1.63;0.90;;;18.40;99.90;;;;;;4975849;28;20070;-76
2023/08/09 01:27:15;;;;;;;3.65;1.15;;;18.40;99.90;;;;;;4976645;28;20477;-76
2023/08/09 01:29:41;;;;;;;1.73;1.13;;;18.40;99.90;;;;;;4976792;28;20106;-76
2023/08/09 01:32:07;;;;;;;3.08;1.13;;;18.40;99.90;;;;;;4992024;28;20030;-76
2023/08/09 01:34:35;;;;;;;1.63;1.10;;;18.40;99.90;;;;;;4990927;28;20535;-75
2023/08/09 01:37:18;;;;;;;2.47;0.90;;;18.40;99.90;;;;;;4991890;28;20357;-75
2023/08/09 01:39:46;;;;;;;1.60;0.90;;;18.50;99.90;;;;;;4991549;28;20029;-75
2023/08/09 01:42:13;;;;;;;1.63;1.10;;;18.50;99.90;;;;;;4976496;28;20457;-75
2023/08/09 01:44:40;;;;;;;0.82;0.80;;;18.50;99.90;;;;;;4988192;28;20080;-76
2023/08/09 01:47:05;;;;;;;1.58;0.82;;;18.50;99.90;;;;;;4978622;28;20027;-76
2023/08/09 01:49:32;;;;;;;3.00;1.20;;;18.40;99.90;;;;;;4994208;28;20165;-76
2023/08/09 01:51:57;;;;;;;2.08;1.17;;;18.40;99.90;;;;;;4994804;28;20026;-75
2023/08/09 01:54:24;;;;;;;2.67;1.13;;;18.50;99.90;;;;;;4994156;28;20035;-75
2023/08/09 01:56:49;;;;;;;1.63;1.10;;;18.50;99.90;;;;;;4995929;28;20105;-76
2023/08/09 01:59:15;;;;;;;1.20;0.88;;;18.50;99.90;;;;;;4978147;28;20054;-75
2023/08/09 02:01:41;;;;;;;1.65;0.95;;;18.40;99.90;;;;;;4994452;28;20038;-76
2023/08/09 02:04:09;;;;;;;1.95;1.00;;;18.50;99.90;;;;;;4994714;28;20042;-76
2023/08/09 02:06:35;;;;;;;1.85;1.15;;;18.40;99.90;;;;;;4995368;28;20023;-75
2023/08/09 02:09:01;;;;;;;2.70;1.38;;;18.40;99.90;;;;;;4978147;28;20384;-75
2023/08/09 02:11:27;;;;;;;3.03;1.00;;;18.50;99.90;;;;;;4993716;28;20121;-76
2023/08/09 02:13:53;;;;;;;2.45;1.02;;;18.50;99.90;;;;;;4995174;28;20126;-75
2023/08/09 02:16:18;;;;;;;1.10;0.77;;;18.50;99.90;;;;;;4995300;28;20098;-75
2023/08/09 02:18:44;;;;;;;2.70;1.02;;;18.50;99.90;;;;;;4994674;28;20054;-75
2023/08/09 02:21:13;;;;;;;3.10;1.50;;;18.50;99.90;;;;;;4994345;28;20032;-76
2023/08/09 02:23:39;;;;;;;1.23;0.70;;;18.60;99.90;;;;;;4994762;28;20061;-75
2023/08/09 02:26:05;;;;;;;1.35;0.75;;;18.60;99.90;;;;;;4977922;28;20027;-76
2023/08/09 02:28:31;;;;;;;1.45;0.90;;;18.60;99.90;;;;;;4993183;28;20076;-75
2023/08/09 02:30:57;;;;;;;3.30;1.27;;;18.60;99.90;;;;;;4993610;28;20042;-76
2023/08/09 02:33:23;;;;;;;1.00;0.90;;;18.60;99.90;;;;;;4993407;28;20455;-76
2023/08/09 02:35:57;;;;;;;2.60;1.00;;;18.60;99.90;;;;;;4977829;28;20053;-77
2023/08/09 02:38:24;;;;;;;1.90;1.02;;;18.60;99.90;;;;;;4995002;28;20030;-77
2023/08/09 02:40:50;;;;;;;1.75;0.77;;;18.60;99.90;;;;;;4994365;28;20081;-77
2023/08/09 02:43:17;;;;;;;1.45;0.90;;;18.60;99.90;;;;;;4977691;28;20045;-76
2023/08/09 02:45:44;;;;;;;3.85;1.10;;;18.60;99.90;;;;;;4994601;28;20163;-75
2023/08/09 02:48:10;;;;;;;2.40;1.30;;;18.60;99.90;;;;;;4995031;28;20482;-75
2023/08/09 02:50:37;;;;;;;3.30;0.93;;;18.60;99.90;;;;;;4976871;28;20201;-76
2023/08/09 02:53:05;;;;;;;1.52;0.90;;;18.60;99.90;;;;;;4994353;28;20066;-76
2023/08/09 02:55:32;;;;;;;1.52;1.00;;;18.60;99.90;;;;;;4977192;28;20030;-76
2023/08/09 02:58:05;;;;;;;1.35;0.80;;;18.60;99.90;;;;;;4994001;28;20030;-76
2023/08/09 03:00:32;;;;;;;3.35;1.52;;;18.60;99.90;;;;;;4977002;28;20140;-77
2023/08/09 03:02:58;;;;;;;3.78;1.10;;;18.60;99.90;;;;;;4977252;28;20032;-76
2023/08/09 03:05:25;;;;;;;4.90;1.10;;;18.50;99.90;;;;;;4992941;28;20026;-77
2023/08/09 03:07:51;;;;;;;1.92;0.90;;;18.60;99.90;;;;;;4994551;28;20085;-77
2023/08/09 03:10:17;;;;;;;2.13;1.20;;;18.60;99.90;;;;;;4994838;28;20034;-77
2023/08/09 03:12:42;;;;;;;1.52;0.88;;;18.50;99.90;;;;;;4993183;28;20029;-76
2023/08/09 03:15:08;;;;;;;1.63;1.05;;;18.50;99.90;;;;;;4993810;28;20027;-77
2023/08/09 03:17:34;;;;;;;2.10;1.10;;;18.60;99.90;;;;;;4994174;28;20073;-77
2023/08/09 03:19:59;;;;;;;2.72;1.20;;;18.50;99.90;;;;;;4993702;28;20527;-77
2023/08/09 03:22:25;;;;;;;1.80;1.00;;;18.50;99.90;;;;;;4974014;28;20472;-78
2023/08/09 03:24:51;;;;;;;1.67;0.90;;;18.50;99.90;;;;;;4973626;28;20027;-76
2023/08/09 03:27:17;;;;;;;3.00;1.45;;;18.50;99.90;;;;;;4958126;28;20034;-76
2023/08/09 03:29:43;;;;;;;2.97;1.10;;;18.60;99.90;;;;;;4957215;28;20435;-76
2023/08/09 03:32:09;;;;;;;3.92;1.10;;;18.50;99.90;;;;;;4973934;28;20030;-77
2023/08/09 03:34:35;;;;;;;1.55;1.10;;;18.60;99.90;;;;;;4974039;28;20035;-76
2023/08/09 03:37:00;;;;;;;2.40;1.10;;;18.60;99.90;;;;;;4973853;28;20037;-76
2023/08/09 03:39:26;;;;;;;1.48;1.15;;;18.60;99.90;;;;;;4973257;28;20033;-77
2023/08/09 03:41:52;;;;;;;1.50;0.90;;;18.50;99.90;;;;;;4983589;28;20037;-76
2023/08/09 03:44:18;;;;;;;2.75;0.88;;;18.60;99.90;;;;;;4984343;28;20058;-76
2023/08/09 03:46:43;;;;;;;1.23;0.95;;;18.60;99.90;;;;;;4976437;28;20030;-76
2023/08/09 03:49:09;;;;;;;3.65;1.00;;;18.60;99.90;;;;;;4956918;28;20035;-76
2023/08/09 03:51:34;;;;;;;2.13;1.00;;;18.60;99.90;;;;;;4979010;28;20121;-76
2023/08/09 03:54:00;;;;;;;2.42;1.02;;;18.50;99.90;;;;;;4982770;28;20046;-76
2023/08/09 03:56:26;;;;;;;2.72;1.05;;;18.50;99.90;;;;;;4973011;28;20038;-78
2023/08/09 03:58:52;;;;;;;3.03;1.20;;;18.50;99.90;;;;;;4973036;28;20034;-76
2023/08/09 04:01:18;;;;;;;4.82;1.15;;;18.60;99.90;;;;;;4978672;28;20022;-76
2023/08/09 04:03:43;;;;;;;3.70;0.90;;;18.50;99.90;;;;;;4992569;28;20073;-76
2023/08/09 04:06:11;;;;;;;2.38;1.25;;;18.50;99.90;;;;;;4980624;28;20085;-76
2023/08/09 04:08:37;;;;;;;2.80;1.20;;;18.50;99.90;;;;;;4986332;28;20066;-76
2023/08/09 04:11:04;;;;;;;3.20;0.90;;;18.50;99.90;;;;;;4993884;28;20062;-76
2023/08/09 04:13:30;;;;;;;1.42;0.90;;;18.50;99.90;;;;;;4993379;28;20086;-76
2023/08/09 04:15:56;;;;;;;3.17;1.10;;;18.60;99.90;;;;;;4993266;28;20084;-75
2023/08/09 04:18:21;;;;;;;2.17;1.00;;;18.50;99.90;;;;;;4997698;28;20031;-76
2023/08/09 04:20:47;;;;;;;3.17;1.10;;;18.50;99.90;;;;;;4994913;28;20037;-75
2023/08/09 04:23:13;;;;;;;2.10;0.90;;;18.50;99.90;;;;;;4961097;28;20031;-75
2023/08/09 04:25:39;;;;;;;1.98;1.00;;;18.50;99.90;;;;;;4968329;28;20026;-76
2023/08/09 04:28:04;;;;;;;2.50;1.00;;;18.50;99.90;;;;;;4986098;28;20029;-76
2023/08/09 04:30:30;;;;;;;1.55;1.10;;;18.50;99.90;;;;;;4974719;28;20044;-78
2023/08/09 04:32:56;;;;;;;2.05;0.88;;;18.50;99.90;;;;;;4997370;28;20038;-76
2023/08/09 04:35:23;;;;;;;1.60;1.15;;;18.50;99.90;;;;;;4983207;28;20027;-76
2023/08/09 04:37:48;;;;;;;2.35;1.13;;;18.50;99.90;;;;;;4984984;28;20600;-76
2023/08/09 04:40:14;;;;;;;2.60;1.10;;;18.40;99.90;;;;;;4992625;28;20034;-75
2023/08/09 04:42:41;;;;;;;1.45;0.90;;;18.40;99.90;;;;;;4979944;28;20082;-76
2023/08/09 04:45:12;;;;;;;1.10;0.80;;;18.50;99.90;;;;;;4960480;28;20053;-76
2023/08/09 04:47:38;;;;;;;3.15;0.80;;;18.40;99.90;;;;;;4963556;28;20410;-76
2023/08/09 04:50:05;;;;;;;3.25;0.90;;;18.50;99.90;;;;;;4977881;28;20027;-76
2023/08/09 04:52:34;;;;;;;2.35;1.13;;;18.40;99.90;;;;;;4970130;28;20030;-77
2023/08/09 04:55:00;;;;;;;2.72;1.17;;;18.40;99.90;;;;;;4994047;28;20097;-76
2023/08/09 04:57:26;;;;;;;2.50;1.00;;;18.40;99.90;;;;;;4986697;28;20104;-76
2023/08/09 04:59:52;;;;;;;2.00;1.00;;;18.40;99.90;;;;;;4969197;28;20527;-75
2023/08/09 05:02:18;;;;;;;2.45;1.00;;;18.40;99.90;;;;;;4959850;28;20142;-76
2023/08/09 05:04:43;;;;;;;4.32;1.17;;;18.40;99.90;;;;;;4976873;28;20109;-75
2023/08/09 05:07:09;;;;;;;3.38;1.00;;;18.40;99.90;;;;;;4977829;28;20388;-76
2023/08/09 05:09:35;;;;;;;6.00;1.50;;;18.40;99.90;;;;;;4978417;28;20098;-76
2023/08/09 05:12:00;;;;;;;3.95;1.00;;;18.50;99.90;;;;;;4974122;28;20027;-75
2023/08/09 05:14:26;;;;;;;2.65;1.00;;;18.50;99.90;;;;;;4976860;28;20034;-76
2023/08/09 05:16:53;;;;;;;2.25;1.10;;;18.50;99.90;;;;;;4975362;28;20027;-76
2023/08/09 05:19:19;;;;;;;2.70;1.00;;;18.50;99.90;;;;;;4975908;28;20058;-76
2023/08/09 05:21:44;;;;;;;2.55;1.10;;;18.50;99.90;;;;;;4975693;28;20132;-75
2023/08/09 05:24:10;;;;;;;4.10;1.20;;;18.50;99.90;;;;;;4976352;28;20476;-76
2023/08/09 05:26:36;;;;;;;5.82;2.67;;;18.50;99.90;;;;;;4975504;28;20034;-76
2023/08/09 05:29:02;;;;;;;5.05;1.33;;;18.60;99.90;;;;;;4975366;28;20026;-76
2023/08/09 05:31:28;;;;;;;5.00;1.10;;;18.60;99.90;;;;;;4976949;28;20022;-76
2023/08/09 05:33:54;;;;;;;1.95;1.20;;;18.60;99.90;;;;;;4985282;28;20038;-76
2023/08/09 05:36:19;;;;;;;6.47;1.20;;;18.60;99.90;;;;;;4959366;28;20031;-76
2023/08/09 05:38:45;;;;;;;3.83;1.27;;;18.60;99.90;;;;;;4988847;28;20460;-76
2023/08/09 05:41:11;;;;;;;3.83;1.20;;;18.60;99.90;;;;;;4978859;28;20377;-77
2023/08/09 05:43:37;;;;;;;3.75;1.70;;;18.60;99.90;;;;;;4984867;28;20388;-76
2023/08/09 05:46:03;;;;;;;1.98;0.90;;;18.60;99.90;;;;;;4983630;28;20027;-77
2023/08/09 05:48:29;;;;;;;2.45;1.08;;;18.70;99.90;;;;;;4976518;28;20093;-77
2023/08/09 05:50:54;;;;;;;1.52;0.80;;;18.70;99.90;;;;;;4961058;28;20083;-77
2023/08/09 05:53:20;;;;;;;1.98;1.08;;;18.70;99.90;;;;;;4978205;28;20045;-77
2023/08/09 05:55:46;;;;;;;2.60;1.13;;;18.70;99.90;;;;;;4995581;28;20034;-77
2023/08/09 05:58:11;;;;;;;6.22;1.00;;;18.70;99.90;;;;;;4982699;28;20383;-77
2023/08/09 06:00:37;;;;;;;2.08;1.00;;;18.70;99.90;;;;;;4974481;28;20040;-77
2023/08/09 06:03:03;;;;;;;3.88;1.13;;;18.70;99.90;;;;;;4976006;28;20027;-77
2023/08/09 06:05:29;;;;;;;2.38;1.10;;;18.80;99.90;;;;;;4982458;28;20069;-78
2023/08/09 06:07:55;;;;;;;1.88;1.00;;;18.70;99.90;;;;;;4992052;28;20114;-76
2023/08/09 06:10:23;;;;;;;4.38;1.10;;;18.70;99.90;;;;;;4994605;28;20035;-76
2023/08/09 06:12:49;;;;;;;3.25;1.00;;;18.80;99.90;;;;;;4994076;28;20029;-77
2023/08/09 06:15:15;;;;;;;5.63;1.80;;;18.80;99.90;;;;;;4978804;28;20529;-77
2023/08/09 06:17:41;;;;;;;2.00;0.95;;;18.70;99.90;;;;;;4977749;28;20113;-77
2023/08/09 06:20:07;;;;;;;3.58;1.00;;;18.70;99.90;;;;;;4984396;28;20157;-77
2023/08/09 06:22:33;;;;;;;1.83;0.95;;;18.70;99.90;;;;;;4975275;28;20490;-78
2023/08/09 06:24:59;;;;;;;2.33;0.98;;;18.70;99.90;;;;;;4975375;28;20031;-77
2023/08/09 06:27:25;;;;;;;3.65;1.10;;;18.70;99.90;;;;;;4976187;28;20031;-77
2023/08/09 06:29:50;;;;;;;4.30;1.20;;;18.70;99.90;;;;;;4975939;28;20535;-77
2023/08/09 06:32:16;;;;;;;7.43;1.30;;;18.70;99.90;;;;;;4974981;28;20026;-77
2023/08/09 06:34:42;;;;;;;1.80;1.17;;;18.80;99.90;;;;;;4976114;28;20035;-77
2023/08/09 06:37:08;;;;;;;1.55;0.82;;;18.80;99.90;;;;;;4975280;28;20035;-78
2023/08/09 06:39:34;;;;;;;1.40;1.02;;;18.80;99.90;;;;;;4994375;28;20026;-80
2023/08/09 06:42:00;;;;;;;2.70;1.10;;;18.80;99.90;;;;;;4969238;28;20551;-80
2023/08/09 06:44:26;;;;;;;2.97;0.90;;;18.80;99.90;;;;;;4990358;28;20050;-78
2023/08/09 06:46:53;;;;;;;3.40;1.13;;;18.90;99.90;;;;;;4977743;28;20080;-78
2023/08/09 06:49:21;;;;;;;5.75;0.80;;;18.90;99.90;;;;;;4982507;28;20015;-78
2023/08/09 06:51:46;;;;;;;2.70;1.02;;;18.90;99.90;;;;;;4980949;28;20027;-78
2023/08/09 06:54:12;;;;;;;4.03;1.20;;;18.90;99.90;;;;;;4990785;28;20372;-78
2023/08/09 06:56:38;;;;;;;2.70;1.10;;;18.90;99.90;;;;;;4976255;28;20026;-78
2023/08/09 06:59:04;;;;;;;6.90;1.10;;;18.90;99.90;;;;;;4952216;28;20118;-78
2023/08/09 07:01:30;;;;;;;3.65;1.00;;;18.90;99.90;;;;;;4983785;28;20023;-78
2023/08/09 07:03:56;;;;;;;3.97;1.13;;;18.90;99.90;;;;;;4975158;28;20031;-78
2023/08/09 07:06:25;;;;;;;2.97;1.02;;;18.90;99.90;;;;;;4984175;28;20027;-78
2023/08/09 07:08:53;;;;;;;2.58;1.10;;;18.90;99.90;;;;;;4984214;28;20350;-78
2023/08/09 07:11:22;;;;;;;2.85;1.30;;;18.90;99.90;;;;;;4993025;28;20058;-77
2023/08/09 07:13:48;;;;;;;2.50;0.98;;;18.90;99.90;;;;;;4993478;28;20061;-77
2023/08/09 07:16:14;;;;;;;5.30;1.02;;;18.80;99.90;;;;;;4994237;28;20030;-74
2023/08/09 07:18:39;;;;;;;3.78;1.25;;;18.90;99.90;;;;;;4993027;28;20054;-76
2023/08/09 07:21:05;;;;;;;3.78;1.02;;;18.80;99.90;;;;;;4994361;28;20041;-76
2023/08/09 07:23:31;;;;;;;3.30;1.20;;;18.90;99.90;;;;;;4983883;28;20027;-76
2023/08/09 07:25:57;;;;;;;5.38;1.55;;;18.90;99.90;;;;;;4957367;28;20134;-76
2023/08/09 07:28:23;;;;;;;4.15;1.30;;;18.90;99.90;;;;;;4957810;28;20113;-77
2023/08/09 07:30:51;;;;;;;5.43;1.50;;;18.90;99.90;;;;;;4971475;28;20113;-76
2023/08/09 07:33:20;;;;;;;4.72;1.20;;;18.90;99.90;;;;;;4976446;28;20042;-77
2023/08/09 07:35:45;;;;;;;4.20;1.38;;;18.90;99.90;;;;;;4956696;28;20365;-77
2023/08/09 07:38:11;;;;;;;2.90;1.08;;;18.90;99.90;;;;;;4983712;28;20041;-77
2023/08/09 07:40:37;;;;;;;2.38;1.05;;;18.90;99.90;;;;;;4992322;28;20041;-79
2023/08/09 07:43:03;;;;;;;3.22;1.02;;;19.00;99.90;;;;;;4979816;28;20031;-79
2023/08/09 07:45:29;;;;;;;1.83;1.35;;;19.10;99.90;;;;;;4990765;28;20042;-78
2023/08/09 07:47:55;;;;;;;2.33;0.90;;;19.20;99.90;;;;;;4993518;28;20022;-78
2023/08/09 07:50:20;;;;;;;1.85;1.05;;;19.20;99.90;;;;;;4976608;28;20482;-78
2023/08/09 07:52:47;;;;;;;3.50;0.90;;;19.30;99.90;;;;;;4973994;28;20085;-79
2023/08/09 07:55:13;;;;;;;1.83;0.80;;;19.30;99.90;;;;;;4974193;28;20040;-78
2023/08/09 07:57:39;;;;;;;3.33;1.00;;;19.40;99.90;;;;;;4990328;28;20027;-79
2023/08/09 08:00:12;;;;;;;2.65;0.80;;;19.40;99.90;;;;;;4974880;28;20026;-77
2023/08/09 08:02:47;;;;;;;2.03;0.93;;;19.40;99.90;;;;;;4985812;28;20054;-79
2023/08/09 08:05:15;;;;;;;2.53;1.10;;;19.40;99.90;;;;;;4992649;28;20036;-79
2023/08/09 08:07:42;;;;;;;3.83;1.02;;;19.40;99.90;;;;;;4976012;28;20065;-80
2023/08/09 08:10:08;;;;;;;2.42;0.95;;;19.40;99.90;;;;;;4967973;28;20035;-81
2023/08/09 08:12:35;;;;;;;2.15;0.85;;;19.50;99.90;;;;;;4961638;28;20057;-83
2023/08/09 08:15:01;;;;;;;5.88;1.15;;;19.50;99.90;;;;;;4981419;28;20093;-84
2023/08/09 08:17:26;;;;;;;2.88;1.05;;;19.50;99.90;;;;;;4987990;28;20034;-79
2023/08/09 08:19:52;;;;;;;2.30;1.10;;;19.50;99.90;;;;;;4984750;28;20117;-82
2023/08/09 08:22:18;;;;;;;4.30;1.02;;;19.50;99.90;;;;;;4982474;28;20026;-80
2023/08/09 08:24:44;;;;;;;2.90;1.00;;;19.50;99.90;;;;;;4982456;28;20059;-80
2023/08/09 08:27:10;;;;;;;2.42;1.00;;;19.50;99.90;;;;;;4988708;28;20077;-79
2023/08/09 08:29:36;;;;;;;1.88;0.63;;;19.50;99.90;;;;;;4991883;28;20030;-78
2023/08/09 08:32:01;;;;;;;4.38;1.15;;;19.50;99.90;;;;;;4990415;28;20033;-79
2023/08/09 08:34:31;;;;;;;2.95;1.15;;;19.60;99.90;;;;;;4972268;28;20045;-77
2023/08/09 08:37:00;;;;;;;3.08;0.90;;;19.60;99.90;;;;;;4992200;28;20042;-89
2023/08/09 08:39:30;;;;;;;1.45;0.90;;;19.60;99.90;;;;;;4979190;28;20323;-82
2023/08/09 08:41:59;;;;;;;5.47;1.00;;;19.60;99.90;;;;;;4986275;28;20026;-83
2023/08/09 08:44:25;;;;;;;3.67;1.10;;;19.60;99.90;;;;;;4963873;28;20050;-81
2023/08/09 08:46:51;;;;;;;5.28;1.20;;;19.60;99.90;;;;;;4985124;28;20484;-82
2023/08/09 08:49:24;;;;;;;3.05;1.10;;;19.60;99.90;;;;;;4988028;28;20133;-81
2023/08/09 08:51:53;;;;;;;2.88;0.90;;;19.60;99.90;;;;;;4969690;28;20035;-82
2023/08/09 08:54:19;;;;;;;3.78;0.98;;;19.60;99.90;;;;;;4970211;28;20413;-82
2023/08/09 08:56:47;;;;;;;2.67;0.88;;;19.60;99.90;;;;;;4954501;28;20038;-82
2023/08/09 08:59:14;;;;;;;2.15;0.90;;;19.60;99.90;;;;;;4961857;28;20031;-82
2023/08/09 09:01:39;;;;;;;4.18;1.13;;;19.60;99.90;;;;;;4968599;28;20102;-82
2023/08/09 09:04:05;;;;;;;4.10;1.02;;;19.60;99.90;;;;;;4973965;28;20061;-82
2023/08/09 09:06:31;;;;;;;4.30;1.13;;;19.70;99.90;;;;;;4980875;28;20457;-82
2023/08/09 09:08:57;;;;;;;4.82;1.27;;;19.70;99.90;;;;;;4979799;28;20043;-81
2023/08/09 09:11:23;;;;;;;2.00;0.80;;;19.80;99.90;;;;;;4976892;28;20023;-82
2023/08/09 09:13:50;;;;;;;2.17;1.10;;;19.80;99.90;;;;;;4976466;28;20031;-82
2023/08/09 09:16:20;;;;;;;3.67;1.13;;;19.80;99.90;;;;;;4968097;28;20028;-82
2023/08/09 09:18:48;;;;;;;3.40;0.90;;;19.80;99.90;;;;;;4965147;28;20031;-83
2023/08/09 09:21:18;;;;;;;2.78;0.88;;;19.80;99.90;;;;;;4973849;28;20046;-81
2023/08/09 09:23:45;;;;;;;5.68;1.10;;;19.80;99.90;;;;;;4972627;28;20089;-81
2023/08/09 09:26:15;;;;;;;1.75;1.02;;;19.80;99.90;;;;;;4958583;29;20027;-81
2023/08/09 09:28:44;;;;;;;2.15;0.90;;;19.90;99.90;;;;;;4973369;28;20027;-82
2023/08/09 09:31:12;;;;;;;2.70;1.00;;;19.90;99.90;;;;;;4974517;28;20043;-81
2023/08/09 09:33:39;;;;;;;3.92;1.17;;;19.90;99.90;;;;;;4974385;28;20035;-83
2023/08/09 09:36:10;;;;;;;3.05;1.20;;;19.80;99.90;;;;;;4979507;28;20090;-81
2023/08/09 09:38:36;;;;;;;2.72;0.80;;;19.80;99.90;;;;;;4973575;28;20161;-82
2023/08/09 09:41:02;;;;;;;2.05;0.75;;;19.70;99.90;;;;;;4976359;28;20085;-82
2023/08/09 09:43:32;;;;;;;2.45;1.02;;;19.60;99.90;;;;;;4977280;28;20459;-82
2023/08/09 09:45:58;;;;;;;1.63;0.60;;;19.50;99.90;;;;;;4969989;28;20126;-83
2023/08/09 09:48:25;;;;;;;1.52;0.60;;;19.50;99.90;;;;;;4996126;28;20503;-81
2023/08/09 09:50:50;;;;;;;1.27;0.80;;;19.60;99.90;;;;;;4977182;28;20030;-82
2023/08/09 09:53:18;;;;;;;1.10;0.60;;;19.70;99.90;;;;;;4979559;28;20501;-81
2023/08/09 09:55:44;;;;;;;0.50;0.38;;;19.80;99.90;;;;;;4993980;28;20019;-81
2023/08/09 09:58:12;;;;;;;2.17;0.40;;;19.90;99.90;;;;;;4994957;28;20081;-82
2023/08/09 10:00:43;;;;;;;0.60;0.50;;;20.10;99.90;;;;;;4995195;28;20057;-83
2023/08/09 10:03:09;;;;;;;2.20;0.65;;;20.20;99.90;;;;;;4996416;28;20030;-81
2023/08/09 10:05:40;;;;;;;1.67;0.68;;;20.20;99.90;;;;;;4996286;28;20085;-81
2023/08/09 10:08:08;;;;;;;2.30;0.73;;;20.30;99.90;;;;;;4979236;28;20571;-82
2023/08/09 10:10:37;;;;;;;2.03;0.80;;;20.50;99.90;;;;;;4966236;28;20034;-81
2023/08/09 10:13:05;;;;;;;2.38;1.02;;;20.60;99.90;;;;;;4976908;28;20034;-81
2023/08/09 10:15:38;;;;;;;1.95;0.90;;;20.70;99.90;;;;;;4978056;28;20018;-81
2023/08/09 10:18:10;;;;;;;3.28;1.05;;;20.70;99.90;;;;;;4989553;28;20034;-80
2023/08/09 10:20:41;;;;;;;;;;;20.80;99.90;;;;;;4994376;28;20026;-80
2023/08/09 10:23:07;;;;;;;2.70;0.90;;;20.90;99.90;;;;;;4995179;28;20347;-80
2023/08/09 10:25:46;;;;;;;1.00;0.90;;;20.90;99.90;;;;;;4978939;28;20034;-79
2023/08/09 10:28:13;;;;;;;2.72;1.10;;;21.00;99.90;;;;;;4995925;28;20109;-80
2023/08/09 10:30:47;;;;;;;2.83;0.90;;;21.00;99.90;;;;;;4966267;28;20038;-80
2023/08/09 10:33:18;;;;;;;2.05;1.00;;;21.10;99.90;;;;;;4959225;28;20030;-78
2023/08/09 10:35:45;;;;;;;;;;;21.20;99.90;;;;;;4986399;28;20038;-79
2023/08/09 10:38:16;;;;;;;3.03;1.20;;;21.20;99.90;;;;;;4987798;28;19910;-79
2023/08/09 10:40:43;;;;;;;3.67;1.33;;;21.20;99.90;;;;;;4976169;28;20030;-79
2023/08/09 10:43:24;;;;;;;5.07;1.20;;;21.10;99.90;;;;;;4972834;28;20037;-82
2023/08/09 10:45:52;;;;;;;1.75;1.00;;;21.10;99.90;;;;;;4979886;28;20108;-80
2023/08/09 10:48:28;;;;;;;3.25;1.13;;;21.20;99.90;;;;;;4992595;28;20173;-80
2023/08/09 10:51:12;;;;;;;2.78;1.60;;;21.20;99.90;;;;;;4981452;28;20031;-78
2023/08/09 10:53:50;;;;;;;1.83;0.80;;;21.20;99.90;;;;;;4993473;28;20034;-82
2023/08/09 10:56:41;;;;;;;5.80;1.10;;;21.20;99.90;;;;;;4975311;28;20022;-78
2023/08/09 10:59:09;;;;;;;8.10;3.97;;;21.20;99.90;;;;;;4975729;28;20037;-81
2023/08/09 11:01:37;;;;;;;2.28;1.40;;;21.20;99.90;;;;;;4991348;28;20034;-80
2023/08/09 11:04:07;;;;;;;7.07;1.10;;;21.20;99.90;;;;;;4988691;28;20088;-80
2023/08/09 11:06:37;;;;;;;1.25;0.95;;;21.10;99.90;;;;;;4961503;28;20031;-79
2023/08/09 11:09:08;;;;;;;2.08;0.95;;;21.00;99.90;;;;;;4973919;28;20038;-82
2023/08/09 11:11:35;;;;;;;3.25;1.48;;;21.00;99.90;;;;;;4975367;28;20106;-81
2023/08/09 11:14:02;;;;;;;3.60;1.23;;;21.10;99.90;;;;;;4974880;28;20042;-80
2023/08/09 11:16:28;;;;;;;1.17;0.90;;;21.10;99.90;;;;;;4974542;28;20041;-85
2023/08/09 11:19:05;;;;;;;1.55;0.90;;;21.20;99.90;;;;;;4974432;28;20023;-82
2023/08/09 11:21:41;;;;;;;2.15;1.17;;;21.20;99.90;;;;;;4974711;28;20106;-83
2023/08/09 11:24:10;;;;;;;2.35;1.02;;;21.10;99.90;;;;;;4975859;28;20161;-82
2023/08/09 11:26:39;;;;;;;1.02;0.90;;;21.00;99.90;;;;;;4993734;28;20105;-80
2023/08/09 11:29:05;;;;;;;2.78;0.95;;;21.00;99.90;;;;;;4994572;28;20490;-82
2023/08/09 11:31:39;;;;;;;1.85;0.80;;;21.10;99.90;;;;;;4994335;28;20094;-83
2023/08/09 11:34:06;;;;;;;2.13;0.95;;;21.20;99.90;;;;;;4976224;28;20034;-79
2023/08/09 11:36:32;;;;;;;2.90;1.00;;;21.30;99.90;;;;;;4962956;28;20030;-82
2023/08/09 11:38:59;;;;;;;2.83;0.70;;;21.40;99.90;;;;;;4989326;28;20172;-80
2023/08/09 11:41:26;;;;;;;1.95;0.98;;;21.60;99.90;;;;;;4977724;28;20467;-80
2023/08/09 11:43:52;;;;;;;3.20;1.35;;;21.70;99.90;;;;;;4992874;28;20073;-84
2023/08/09 11:46:22;;;;;;;2.65;0.75;;;21.80;99.90;;;;;;4994072;28;20031;-83
2023/08/09 11:48:49;;;;;;;2.78;1.10;;;21.90;99.90;;;;;;4988501;28;20102;-80
2023/08/09 11:51:20;;;;;;;2.17;0.85;;;22.00;99.90;;;;;;4959863;28;20030;-81
2023/08/09 11:53:48;;;;;;;4.20;1.30;;;22.10;99.90;;;;;;4957501;28;20117;-80
2023/08/09 11:56:18;;;;;;;1.42;0.88;;;22.10;99.90;;;;;;4957733;28;20027;-80
2023/08/09 11:58:47;;;;;;;1.73;0.75;;;22.20;99.90;;;;;;4956879;28;20535;-81
2023/08/09 12:01:13;;;;;;;2.15;0.90;;;22.30;99.90;;;;;;4970644;28;20383;-80
2023/08/09 12:03:39;;;;;;;1.52;0.88;;;22.40;99.90;;;;;;4994757;28;20023;-80
2023/08/09 12:06:05;;;;;;;2.90;0.80;;;22.40;99.90;;;;;;4974578;28;20041;-81
2023/08/09 12:08:35;;;;;;;3.65;1.27;;;22.30;99.90;;;;;;4984596;28;20034;-81
2023/08/09 12:11:01;;;;;;;2.15;1.02;;;22.30;99.90;;;;;;4975986;28;20024;-82
2023/08/09 12:13:26;;;;;;;1.27;0.85;;;22.40;99.90;;;;;;4973601;28;20096;-81
2023/08/09 12:15:52;;;;;;;2.05;1.23;;;22.50;99.90;;;;;;4963107;28;20038;-81
2023/08/09 12:18:18;;;;;;;2.33;1.00;;;22.50;99.90;;;;;;4989202;28;20035;-80
2023/08/09 12:20:43;;;;;;;3.00;1.00;;;22.40;99.90;;;;;;4982405;28;20030;-81
2023/08/09 12:23:09;;;;;;;2.53;0.90;;;22.20;99.90;;;;;;4977925;28;20387;-81
2023/08/09 12:25:34;;;;;;;1.88;1.00;;;22.20;99.90;;;;;;4976610;28;20030;-81
2023/08/09 12:28:00;;;;;;;1.35;0.90;;;22.20;99.90;;;;;;4993088;28;20538;-82
2023/08/09 12:30:25;;;;;;;2.03;1.00;;;22.10;99.90;;;;;;4992554;28;20030;-82
2023/08/09 12:32:51;;;;;;;1.75;0.82;;;22.10;99.90;;;;;;4962939;28;20034;-81
2023/08/09 12:35:17;;;;;;;2.03;1.00;;;22.10;99.90;;;;;;4983694;28;20050;-83
2023/08/09 12:37:45;;;;;;;3.42;0.90;;;22.10;99.90;;;;;;4989590;28;20031;-81
2023/08/09 12:40:11;;;;;;;2.83;0.90;;;22.20;99.90;;;;;;4996389;28;20027;-81
2023/08/09 12:42:37;;;;;;;0.80;0.80;;;22.30;99.90;;;;;;4994765;28;20023;-82
2023/08/09 12:45:04;;;;;;;1.42;0.70;;;22.50;99.90;;;;;;4997080;28;20372;-81
2023/08/09 12:47:30;;;;;;;1.98;0.90;;;22.50;99.90;;;;;;4983779;28;20033;-82